Terminal Aerodrome Forecast
Issued by NWS Twin Cities, MN

Home | Current Version | Previous Version | Graphics & Text | Print | Product List | Glossary On
Versions: 1 2 3 4 5 6 7 8 9 10 11 12 13 14 15 16 17 18 19 20 21 22 23 24 25 26 27 28 29
000
FTUS43 KMPX 222053 AAA
TAFMSP
TAF AMD
KMSP 222053Z 2221/2324 18014G20KT P6SM SCT250
     FM230200 16012KT P6SM SCT110
     FM231000 16012KT P6SM SCT050 BKN090
     FM231200 16012KT P6SM VCTS SCT025 BKN050CB
     FM231500 17012G20KT 6SM SHRA VCTS SCT025 BKN035CB
     FM231800 21014G20KT P6SM VCTS SCT025CB BKN050=

USA.gov is the U.S. government's official web portal to all federal, state and local government web resources and services.